sensor_id;sensor_type;location;lat;lon;timestamp;temperature;humidity
79439;DHT22;68889;48.232;10.110;2023-04-01T00:01:58;7.20;86.80
79439;DHT22;68889;48.232;10.110;2023-04-01T00:04:24;7.20;87.10
79439;DHT22;68889;48.232;10.110;2023-04-01T00:06:49;7.20;86.90
79439;DHT22;68889;48.232;10.110;2023-04-01T00:09:15;7.20;86.50
79439;DHT22;68889;48.232;10.110;2023-04-01T00:11:40;7.30;86.50
79439;DHT22;68889;48.232;10.110;2023-04-01T00:14:07;7.30;86.50
79439;DHT22;68889;48.232;10.110;2023-04-01T00:16:33;7.20;86.70
79439;DHT22;68889;48.232;10.110;2023-04-01T00:18:58;7.20;86.50
79439;DHT22;68889;48.232;10.110;2023-04-01T00:21:25;7.20;86.40
79439;DHT22;68889;48.232;10.110;2023-04-01T00:23:51;7.20;86.60
79439;DHT22;68889;48.232;10.110;2023-04-01T00:26:17;7.20;86.60
79439;DHT22;68889;48.232;10.110;2023-04-01T00:28:44;7.10;86.50
79439;DHT22;68889;48.232;10.110;2023-04-01T00:31:14;7.10;86.70
79439;DHT22;68889;48.232;10.110;2023-04-01T00:33:40;7.10;87.20
79439;DHT22;68889;48.232;10.110;2023-04-01T00:36:11;7.10;87.40
79439;DHT22;68889;48.232;10.110;2023-04-01T00:38:38;7.00;87.60
79439;DHT22;68889;48.232;10.110;2023-04-01T00:41:04;7.00;87.80
79439;DHT22;68889;48.232;10.110;2023-04-01T00:43:30;6.90;87.90
79439;DHT22;68889;48.232;10.110;2023-04-01T00:45:57;6.90;88.20
79439;DHT22;68889;48.232;10.110;2023-04-01T00:48:26;6.90;88.10
79439;DHT22;68889;48.232;10.110;2023-04-01T00:51:16;6.90;87.80
79439;DHT22;68889;48.232;10.110;2023-04-01T00:53:45;6.90;88.10
79439;DHT22;68889;48.232;10.110;2023-04-01T00:56:15;6.90;88.00
79439;DHT22;68889;48.232;10.110;2023-04-01T00:58:47;6.90;87.80
79439;DHT22;68889;48.232;10.110;2023-04-01T01:01:13;6.90;87.40
79439;DHT22;68889;48.232;10.110;2023-04-01T01:03:39;6.90;87.30
79439;DHT22;68889;48.232;10.110;2023-04-01T01:06:27;6.90;87.00
79439;DHT22;68889;48.232;10.110;2023-04-01T01:12:11;6.90;86.90
79439;DHT22;68889;48.232;10.110;2023-04-01T01:35:20;6.80;86.30
79439;DHT22;68889;48.232;10.110;2023-04-01T01:37:47;6.80;86.20
79439;DHT22;68889;48.232;10.110;2023-04-01T01:40:16;6.80;86.40
79439;DHT22;68889;48.232;10.110;2023-04-01T01:42:46;6.70;86.40
79439;DHT22;68889;48.232;10.110;2023-04-01T01:45:14;6.70;86.20
79439;DHT22;68889;48.232;10.110;2023-04-01T01:47:43;6.70;86.30
79439;DHT22;68889;48.232;10.110;2023-04-01T01:50:09;6.70;86.10
79439;DHT22;68889;48.232;10.110;2023-04-01T01:52:35;6.60;86.10
79439;DHT22;68889;48.232;10.110;2023-04-01T01:55:01;6.70;85.80
79439;DHT22;68889;48.232;10.110;2023-04-01T01:57:30;6.60;86.30
79439;DHT22;68889;48.232;10.110;2023-04-01T02:00:00;6.60;86.30
79439;DHT22;68889;48.232;10.110;2023-04-01T02:02:28;6.70;86.20
79439;DHT22;68889;48.232;10.110;2023-04-01T02:04:56;6.70;86.10
79439;DHT22;68889;48.232;10.110;2023-04-01T02:07:30;6.70;86.10
79439;DHT22;68889;48.232;10.110;2023-04-01T02:09:57;6.70;86.30
79439;DHT22;68889;48.232;10.110;2023-04-01T02:12:23;6.60;86.30
79439;DHT22;68889;48.232;10.110;2023-04-01T02:14:57;6.60;86.40
79439;DHT22;68889;48.232;10.110;2023-04-01T02:17:26;6.60;86.00
79439;DHT22;68889;48.232;10.110;2023-04-01T02:20:08;6.60;86.20
79439;DHT22;68889;48.232;10.110;2023-04-01T02:22:38;6.50;86.40
79439;DHT22;68889;48.232;10.110;2023-04-01T02:25:11;6.50;85.30
79439;DHT22;68889;48.232;10.110;2023-04-01T02:27:38;6.50;85.50
79439;DHT22;68889;48.232;10.110;2023-04-01T02:30:04;6.50;85.50
79439;DHT22;68889;48.232;10.110;2023-04-01T02:32:31;6.50;85.20
79439;DHT22;68889;48.232;10.110;2023-04-01T02:34:58;6.50;85.00
79439;DHT22;68889;48.232;10.110;2023-04-01T02:37:25;6.40;85.30
79439;DHT22;68889;48.232;10.110;2023-04-01T02:39:51;6.40;85.00
79439;DHT22;68889;48.232;10.110;2023-04-01T02:42:16;6.40;85.20
79439;DHT22;68889;48.232;10.110;2023-04-01T02:44:42;6.40;85.20
79439;DHT22;68889;48.232;10.110;2023-04-01T02:47:07;6.40;85.00
79439;DHT22;68889;48.232;10.110;2023-04-01T02:49:33;6.40;85.00
79439;DHT22;68889;48.232;10.110;2023-04-01T02:51:58;6.40;85.00
79439;DHT22;68889;48.232;10.110;2023-04-01T02:54:24;6.40;85.00
79439;DHT22;68889;48.232;10.110;2023-04-01T02:56:49;6.40;85.20
79439;DHT22;68889;48.232;10.110;2023-04-01T02:59:15;6.40;85.20
79439;DHT22;68889;48.232;10.110;2023-04-01T03:01:40;6.40;85.60
79439;DHT22;68889;48.232;10.110;2023-04-01T03:04:06;6.40;86.70
79439;DHT22;68889;48.232;10.110;2023-04-01T03:06:31;6.40;87.20
79439;DHT22;68889;48.232;10.110;2023-04-01T03:08:57;6.30;88.00
79439;DHT22;68889;48.232;10.110;2023-04-01T03:11:23;6.30;88.70
79439;DHT22;68889;48.232;10.110;2023-04-01T03:13:48;6.30;89.00
79439;DHT22;68889;48.232;10.110;2023-04-01T03:16:14;6.20;89.20
79439;DHT22;68889;48.232;10.110;2023-04-01T03:18:40;6.20;89.60
79439;DHT22;68889;48.232;10.110;2023-04-01T03:21:16;6.20;89.70
79439;DHT22;68889;48.232;10.110;2023-04-01T03:23:42;6.20;90.30
79439;DHT22;68889;48.232;10.110;2023-04-01T03:26:08;6.20;90.10
79439;DHT22;68889;48.232;10.110;2023-04-01T03:28:34;6.20;90.40
79439;DHT22;68889;48.232;10.110;2023-04-01T03:30:59;6.10;90.50
79439;DHT22;68889;48.232;10.110;2023-04-01T03:33:25;6.10;90.90
79439;DHT22;68889;48.232;10.110;2023-04-01T03:35:51;6.10;91.00
79439;DHT22;68889;48.232;10.110;2023-04-01T03:38:17;6.20;91.50
79439;DHT22;68889;48.232;10.110;2023-04-01T03:40:44;6.10;91.50
79439;DHT22;68889;48.232;10.110;2023-04-01T03:43:10;6.20;91.40
79439;DHT22;68889;48.232;10.110;2023-04-01T03:45:42;6.10;91.80
79439;DHT22;68889;48.232;10.110;2023-04-01T03:48:08;6.20;91.20
79439;DHT22;68889;48.232;10.110;2023-04-01T03:50:34;6.20;91.20
79439;DHT22;68889;48.232;10.110;2023-04-01T03:53:00;6.20;91.30
79439;DHT22;68889;48.232;10.110;2023-04-01T03:55:25;6.30;91.40
79439;DHT22;68889;48.232;10.110;2023-04-01T03:57:51;6.30;91.70
79439;DHT22;68889;48.232;10.110;2023-04-01T04:00:17;6.30;91.70
79439;DHT22;68889;48.232;10.110;2023-04-01T04:02:42;6.30;91.10
79439;DHT22;68889;48.232;10.110;2023-04-01T04:05:08;6.30;91.00
79439;DHT22;68889;48.232;10.110;2023-04-01T04:07:34;6.40;90.60
79439;DHT22;68889;48.232;10.110;2023-04-01T04:10:00;6.40;90.60
79439;DHT22;68889;48.232;10.110;2023-04-01T04:12:26;6.40;90.50
79439;DHT22;68889;48.232;10.110;2023-04-01T04:14:51;6.40;90.10
79439;DHT22;68889;48.232;10.110;2023-04-01T04:17:17;6.40;90.00
79439;DHT22;68889;48.232;10.110;2023-04-01T04:19:42;6.40;89.80
79439;DHT22;68889;48.232;10.110;2023-04-01T04:22:08;6.50;89.80
79439;DHT22;68889;48.232;10.110;2023-04-01T04:24:37;6.50;89.10
79439;DHT22;68889;48.232;10.110;2023-04-01T04:27:03;6.50;88.80
79439;DHT22;68889;48.232;10.110;2023-04-01T04:29:29;6.50;88.60
79439;DHT22;68889;48.232;10.110;2023-04-01T04:31:55;6.50;88.80
79439;DHT22;68889;48.232;10.110;2023-04-01T04:34:20;6.50;88.40
79439;DHT22;68889;48.232;10.110;2023-04-01T04:36:48;6.50;88.10
79439;DHT22;68889;48.232;10.110;2023-04-01T04:39:14;6.40;88.10
79439;DHT22;68889;48.232;10.110;2023-04-01T04:41:40;6.40;88.10
79439;DHT22;68889;48.232;10.110;2023-04-01T04:44:06;6.30;88.40
79439;DHT22;68889;48.232;10.110;2023-04-01T04:46:32;6.30;88.20
79439;DHT22;68889;48.232;10.110;2023-04-01T04:48:57;6.30;88.30
79439;DHT22;68889;48.232;10.110;2023-04-01T04:51:23;6.30;88.40
79439;DHT22;68889;48.232;10.110;2023-04-01T04:53:49;6.40;88.40
79439;DHT22;68889;48.232;10.110;2023-04-01T04:56:19;6.30;88.40
79439;DHT22;68889;48.232;10.110;2023-04-01T04:58:45;6.30;88.20
79439;DHT22;68889;48.232;10.110;2023-04-01T05:01:14;6.40;88.20
79439;DHT22;68889;48.232;10.110;2023-04-01T05:03:40;6.30;88.10
79439;DHT22;68889;48.232;10.110;2023-04-01T05:06:08;6.40;87.60
79439;DHT22;68889;48.232;10.110;2023-04-01T05:08:34;6.40;87.90
79439;DHT22;68889;48.232;10.110;2023-04-01T05:11:00;6.40;87.80
79439;DHT22;68889;48.232;10.110;2023-04-01T05:13:27;6.50;88.10
79439;DHT22;68889;48.232;10.110;2023-04-01T05:15:52;6.50;87.70
79439;DHT22;68889;48.232;10.110;2023-04-01T05:18:18;6.50;87.70
79439;DHT22;68889;48.232;10.110;2023-04-01T05:20:49;6.50;87.30
79439;DHT22;68889;48.232;10.110;2023-04-01T05:23:15;6.50;87.00
79439;DHT22;68889;48.232;10.110;2023-04-01T05:25:41;6.60;86.90
79439;DHT22;68889;48.232;10.110;2023-04-01T05:28:06;6.60;87.00
79439;DHT22;68889;48.232;10.110;2023-04-01T05:30:32;6.60;86.30
79439;DHT22;68889;48.232;10.110;2023-04-01T05:32:57;6.60;86.70
79439;DHT22;68889;48.232;10.110;2023-04-01T05:35:23;6.70;87.00
79439;DHT22;68889;48.232;10.110;2023-04-01T05:37:49;6.70;87.00
79439;DHT22;68889;48.232;10.110;2023-04-01T05:40:15;6.70;87.40
79439;DHT22;68889;48.232;10.110;2023-04-01T05:42:40;6.70;87.50
79439;DHT22;68889;48.232;10.110;2023-04-01T05:45:06;6.70;87.10
79439;DHT22;68889;48.232;10.110;2023-04-01T05:47:32;6.70;87.00
79439;DHT22;68889;48.232;10.110;2023-04-01T05:49:58;6.80;87.00
79439;DHT22;68889;48.232;10.110;2023-04-01T05:52:23;6.80;86.90
79439;DHT22;68889;48.232;10.110;2023-04-01T05:54:49;6.80;86.80
79439;DHT22;68889;48.232;10.110;2023-04-01T05:57:14;6.80;86.40
79439;DHT22;68889;48.232;10.110;2023-04-01T05:59:40;6.90;86.40
79439;DHT22;68889;48.232;10.110;2023-04-01T06:02:06;6.90;85.50
79439;DHT22;68889;48.232;10.110;2023-04-01T06:04:37;6.90;85.50
79439;DHT22;68889;48.232;10.110;2023-04-01T06:07:17;6.90;84.80
79439;DHT22;68889;48.232;10.110;2023-04-01T06:09:44;7.00;84.20
79439;DHT22;68889;48.232;10.110;2023-04-01T06:20:56;7.00;83.00
79439;DHT22;68889;48.232;10.110;2023-04-01T06:26:25;7.10;82.90
79439;DHT22;68889;48.232;10.110;2023-04-01T06:51:28;7.50;82.10
79439;DHT22;68889;48.232;10.110;2023-04-01T06:54:20;7.50;81.70
79439;DHT22;68889;48.232;10.110;2023-04-01T06:56:51;7.40;82.00
79439;DHT22;68889;48.232;10.110;2023-04-01T06:59:25;7.40;82.10
79439;DHT22;68889;48.232;10.110;2023-04-01T07:02:06;7.50;81.80
79439;DHT22;68889;48.232;10.110;2023-04-01T07:04:46;7.50;82.10
79439;DHT22;68889;48.232;10.110;2023-04-01T07:07:24;7.60;81.20
79439;DHT22;68889;48.232;10.110;2023-04-01T07:09:56;7.60;81.70
79439;DHT22;68889;48.232;10.110;2023-04-01T07:15:21;7.70;81.00
79439;DHT22;68889;48.232;10.110;2023-04-01T07:17:52;7.80;80.70
79439;DHT22;68889;48.232;10.110;2023-04-01T07:20:36;7.80;80.80
79439;DHT22;68889;48.232;10.110;2023-04-01T07:23:07;7.90;80.20
79439;DHT22;68889;48.232;10.110;2023-04-01T07:25:39;7.80;80.70
79439;DHT22;68889;48.232;10.110;2023-04-01T07:28:13;7.90;80.80
79439;DHT22;68889;48.232;10.110;2023-04-01T07:33:39;8.00;80.40
79439;DHT22;68889;48.232;10.110;2023-04-01T07:50:41;8.70;77.60
79439;DHT22;68889;48.232;10.110;2023-04-01T07:55:55;8.80;77.10
79439;DHT22;68889;48.232;10.110;2023-04-01T08:11:41;9.00;74.80
79439;DHT22;68889;48.232;10.110;2023-04-01T08:14:31;9.00;74.90
79439;DHT22;68889;48.232;10.110;2023-04-01T08:17:12;9.10;74.80
79439;DHT22;68889;48.232;10.110;2023-04-01T08:20:07;9.00;75.10
79439;DHT22;68889;48.232;10.110;2023-04-01T08:22:45;9.10;75.30
79439;DHT22;68889;48.232;10.110;2023-04-01T08:25:20;9.10;74.60
79439;DHT22;68889;48.232;10.110;2023-04-01T08:35:50;9.10;74.20
79439;DHT22;68889;48.232;10.110;2023-04-01T08:47:18;9.20;74.30
79439;DHT22;68889;48.232;10.110;2023-04-01T08:49:52;9.10;74.60
79439;DHT22;68889;48.232;10.110;2023-04-01T08:52:23;9.20;74.70
79439;DHT22;68889;48.232;10.110;2023-04-01T09:00:15;9.30;74.20
79439;DHT22;68889;48.232;10.110;2023-04-01T09:05:35;9.50;73.80
79439;DHT22;68889;48.232;10.110;2023-04-01T09:11:03;9.40;73.40
79439;DHT22;68889;48.232;10.110;2023-04-01T09:13:59;9.50;74.50
79439;DHT22;68889;48.232;10.110;2023-04-01T09:33:23;8.70;79.20
79439;DHT22;68889;48.232;10.110;2023-04-01T09:36:22;8.60;79.80
79439;DHT22;68889;48.232;10.110;2023-04-01T09:39:10;8.50;80.90
79439;DHT22;68889;48.232;10.110;2023-04-01T09:44:52;8.40;81.30
79439;DHT22;68889;48.232;10.110;2023-04-01T09:47:43;8.30;80.30
79439;DHT22;68889;48.232;10.110;2023-04-01T09:56:27;8.40;79.20
79439;DHT22;68889;48.232;10.110;2023-04-01T10:05:10;8.50;78.50
79439;DHT22;68889;48.232;10.110;2023-04-01T10:07:57;8.40;78.40
79439;DHT22;68889;48.232;10.110;2023-04-01T10:30:58;8.50;77.90
79439;DHT22;68889;48.232;10.110;2023-04-01T10:39:08;8.70;77.60
79439;DHT22;68889;48.232;10.110;2023-04-01T10:47:58;9.00;75.90
79439;DHT22;68889;48.232;10.110;2023-04-01T10:53:31;8.90;75.90
79439;DHT22;68889;48.232;10.110;2023-04-01T11:21:46;9.30;78.30
79439;DHT22;68889;48.232;10.110;2023-04-01T11:24:33;9.20;77.50
79439;DHT22;68889;48.232;10.110;2023-04-01T11:30:26;9.10;79.90
79439;DHT22;68889;48.232;10.110;2023-04-01T11:35:54;9.00;80.90
79439;DHT22;68889;48.232;10.110;2023-04-01T11:44:03;8.50;83.70
79439;DHT22;68889;48.232;10.110;2023-04-01T11:46:48;8.40;84.00
79439;DHT22;68889;48.232;10.110;2023-04-01T11:55:25;8.00;85.70
79439;DHT22;68889;48.232;10.110;2023-04-01T11:58:02;8.00;86.10
79439;DHT22;68889;48.232;10.110;2023-04-01T12:05:50;7.90;86.80
79439;DHT22;68889;48.232;10.110;2023-04-01T12:11:34;7.90;86.80
79439;DHT22;68889;48.232;10.110;2023-04-01T12:22:36;8.30;87.70
79439;DHT22;68889;48.232;10.110;2023-04-01T12:35:46;8.80;85.80
79439;DHT22;68889;48.232;10.110;2023-04-01T12:38:49;9.00;84.20
79439;DHT22;68889;48.232;10.110;2023-04-01T12:52:54;9.20;81.00
79439;DHT22;68889;48.232;10.110;2023-04-01T12:55:41;9.10;83.00
79439;DHT22;68889;48.232;10.110;2023-04-01T12:58:56;9.20;80.60
79439;DHT22;68889;48.232;10.110;2023-04-01T13:01:30;9.10;81.10
79439;DHT22;68889;48.232;10.110;2023-04-01T13:04:25;9.00;82.30
79439;DHT22;68889;48.232;10.110;2023-04-01T13:12:46;8.90;81.60
79439;DHT22;68889;48.232;10.110;2023-04-01T13:18:36;8.70;82.30
79439;DHT22;68889;48.232;10.110;2023-04-01T13:21:19;8.80;82.10
79439;DHT22;68889;48.232;10.110;2023-04-01T13:24:17;8.70;82.00
79439;DHT22;68889;48.232;10.110;2023-04-01T13:27:07;8.70;81.20
79439;DHT22;68889;48.232;10.110;2023-04-01T13:33:11;8.80;82.20
79439;DHT22;68889;48.232;10.110;2023-04-01T13:40:42;8.80;81.10
79439;DHT22;68889;48.232;10.110;2023-04-01T13:46:09;9.00;80.80
79439;DHT22;68889;48.232;10.110;2023-04-01T13:57:17;9.20;80.60
79439;DHT22;68889;48.232;10.110;2023-04-01T14:00:10;9.20;81.30
79439;DHT22;68889;48.232;10.110;2023-04-01T14:09:30;9.10;82.50
79439;DHT22;68889;48.232;10.110;2023-04-01T14:11:45;9.10;80.60
79439;DHT22;68889;48.232;10.110;2023-04-01T14:17:31;9.20;79.60
79439;DHT22;68889;48.232;10.110;2023-04-01T14:20:20;9.20;79.40
79439;DHT22;68889;48.232;10.110;2023-04-01T14:23:05;9.30;79.70
79439;DHT22;68889;48.232;10.110;2023-04-01T14:28:53;9.40;76.40
79439;DHT22;68889;48.232;10.110;2023-04-01T14:34:21;9.40;77.40
79439;DHT22;68889;48.232;10.110;2023-04-01T14:51:21;9.50;76.70
79439;DHT22;68889;48.232;10.110;2023-04-01T14:59:28;9.80;76.10
79439;DHT22;68889;48.232;10.110;2023-04-01T15:08:30;10.00;75.20
79439;DHT22;68889;48.232;10.110;2023-04-01T15:11:04;10.00;74.40
79439;DHT22;68889;48.232;10.110;2023-04-01T15:34:04;9.80;75.00
79439;DHT22;68889;48.232;10.110;2023-04-01T15:36:44;9.80;75.30
79439;DHT22;68889;48.232;10.110;2023-04-01T15:42:22;9.70;75.70
79439;DHT22;68889;48.232;10.110;2023-04-01T15:55:59;9.50;75.90
79439;DHT22;68889;48.232;10.110;2023-04-01T16:10:06;9.40;75.90
79439;DHT22;68889;48.232;10.110;2023-04-01T16:12:53;9.40;75.10
79439;DHT22;68889;48.232;10.110;2023-04-01T16:19:04;9.40;76.00
79439;DHT22;68889;48.232;10.110;2023-04-01T16:23:51;9.40;76.50
79439;DHT22;68889;48.232;10.110;2023-04-01T16:26:33;9.40;76.40
79439;DHT22;68889;48.232;10.110;2023-04-01T16:34:36;9.20;77.60
79439;DHT22;68889;48.232;10.110;2023-04-01T16:37:29;9.20;77.80
79439;DHT22;68889;48.232;10.110;2023-04-01T16:42:49;9.00;80.30
79439;DHT22;68889;48.232;10.110;2023-04-01T16:45:19;9.00;80.20
79439;DHT22;68889;48.232;10.110;2023-04-01T16:47:56;8.90;80.80
79439;DHT22;68889;48.232;10.110;2023-04-01T16:50:25;8.80;81.20
79439;DHT22;68889;48.232;10.110;2023-04-01T16:52:54;8.80;81.10
79439;DHT22;68889;48.232;10.110;2023-04-01T16:55:48;8.80;81.40
79439;DHT22;68889;48.232;10.110;2023-04-01T17:01:19;8.70;81.20
79439;DHT22;68889;48.232;10.110;2023-04-01T17:03:52;8.70;81.20
79439;DHT22;68889;48.232;10.110;2023-04-01T17:06:33;8.70;81.40
79439;DHT22;68889;48.232;10.110;2023-04-01T17:12:30;8.70;81.10
79439;DHT22;68889;48.232;10.110;2023-04-01T17:15:04;8.60;81.20
79439;DHT22;68889;48.232;10.110;2023-04-01T17:23:21;8.60;81.00
79439;DHT22;68889;48.232;10.110;2023-04-01T17:26:03;8.60;80.50
79439;DHT22;68889;48.232;10.110;2023-04-01T17:34:15;8.60;80.90
79439;DHT22;68889;48.232;10.110;2023-04-01T17:42:15;8.50;80.40
79439;DHT22;68889;48.232;10.110;2023-04-01T17:44:49;8.50;79.70
79439;DHT22;68889;48.232;10.110;2023-04-01T17:52:58;8.50;80.30
79439;DHT22;68889;48.232;10.110;2023-04-01T18:01:25;8.40;79.80
79439;DHT22;68889;48.232;10.110;2023-04-01T18:03:57;8.40;79.70
79439;DHT22;68889;48.232;10.110;2023-04-01T18:12:13;8.40;79.60
79439;DHT22;68889;48.232;10.110;2023-04-01T18:22:48;8.20;81.40
79439;DHT22;68889;48.232;10.110;2023-04-01T18:25:43;8.20;81.20
79439;DHT22;68889;48.232;10.110;2023-04-01T18:28:42;8.20;81.30
79439;DHT22;68889;48.232;10.110;2023-04-01T18:39:18;8.10;81.50
79439;DHT22;68889;48.232;10.110;2023-04-01T18:44:45;8.10;82.10
79439;DHT22;68889;48.232;10.110;2023-04-01T18:47:38;8.10;81.90
79439;DHT22;68889;48.232;10.110;2023-04-01T18:50:41;8.00;82.30
79439;DHT22;68889;48.232;10.110;2023-04-01T18:53:19;7.90;82.50
79439;DHT22;68889;48.232;10.110;2023-04-01T18:55:55;7.90;82.40
79439;DHT22;68889;48.232;10.110;2023-04-01T18:58:33;7.90;82.70
79439;DHT22;68889;48.232;10.110;2023-04-01T19:03:45;7.80;82.70
79439;DHT22;68889;48.232;10.110;2023-04-01T19:06:35;7.70;83.10
79439;DHT22;68889;48.232;10.110;2023-04-01T19:09:19;7.80;82.80
79439;DHT22;68889;48.232;10.110;2023-04-01T19:17:17;7.70;82.40
79439;DHT22;68889;48.232;10.110;2023-04-01T19:28:26;7.60;83.00
79439;DHT22;68889;48.232;10.110;2023-04-01T19:30:57;7.50;83.30
79439;DHT22;68889;48.232;10.110;2023-04-01T19:34:28;7.40;83.70
79439;DHT22;68889;48.232;10.110;2023-04-01T19:36:37;7.40;83.70
79439;DHT22;68889;48.232;10.110;2023-04-01T19:56:14;7.10;84.40
79439;DHT22;68889;48.232;10.110;2023-04-01T20:04:20;7.00;85.10
79439;DHT22;68889;48.232;10.110;2023-04-01T20:07:00;7.00;84.90
79439;DHT22;68889;48.232;10.110;2023-04-01T20:15:45;7.00;85.50
79439;DHT22;68889;48.232;10.110;2023-04-01T20:18:22;7.00;85.50
79439;DHT22;68889;48.232;10.110;2023-04-01T20:23:43;7.00;85.40
79439;DHT22;68889;48.232;10.110;2023-04-01T20:26:20;7.00;85.50
79439;DHT22;68889;48.232;10.110;2023-04-01T20:31:44;7.00;85.40
79439;DHT22;68889;48.232;10.110;2023-04-01T20:50:52;6.90;86.00
79439;DHT22;68889;48.232;10.110;2023-04-01T21:05:04;6.80;86.40
79439;DHT22;68889;48.232;10.110;2023-04-01T21:07:41;6.80;86.50
79439;DHT22;68889;48.232;10.110;2023-04-01T21:13:29;6.80;86.60
79439;DHT22;68889;48.232;10.110;2023-04-01T21:16:10;6.80;86.50
79439;DHT22;68889;48.232;10.110;2023-04-01T21:38:15;6.50;87.40
79439;DHT22;68889;48.232;10.110;2023-04-01T22:00:38;6.50;88.20
79439;DHT22;68889;48.232;10.110;2023-04-01T22:05:55;6.50;88.00
79439;DHT22;68889;48.232;10.110;2023-04-01T22:14:09;6.40;88.10
79439;DHT22;68889;48.232;10.110;2023-04-01T22:17:00;6.40;88.20
79439;DHT22;68889;48.232;10.110;2023-04-01T22:19:42;6.30;88.40
79439;DHT22;68889;48.232;10.110;2023-04-01T22:25:04;6.30;88.60
79439;DHT22;68889;48.232;10.110;2023-04-01T22:27:56;6.30;88.40
79439;DHT22;68889;48.232;10.110;2023-04-01T22:30:29;6.30;88.60
79439;DHT22;68889;48.232;10.110;2023-04-01T22:33:06;6.30;88.60
79439;DHT22;68889;48.232;10.110;2023-04-01T22:43:47;6.30;87.90
79439;DHT22;68889;48.232;10.110;2023-04-01T22:46:20;6.30;87.80
79439;DHT22;68889;48.232;10.110;2023-04-01T22:56:47;6.20;87.90
79439;DHT22;68889;48.232;10.110;2023-04-01T22:59:19;6.10;88.10
79439;DHT22;68889;48.232;10.110;2023-04-01T23:01:58;6.10;88.00
79439;DHT22;68889;48.232;10.110;2023-04-01T23:04:31;6.10;88.00
79439;DHT22;68889;48.232;10.110;2023-04-01T23:09:54;6.10;88.00
79439;DHT22;68889;48.232;10.110;2023-04-01T23:12:21;6.10;87.80
79439;DHT22;68889;48.232;10.110;2023-04-01T23:14:51;6.20;87.90
79439;DHT22;68889;48.232;10.110;2023-04-01T23:22:44;6.30;87.00
79439;DHT22;68889;48.232;10.110;2023-04-01T23:28:14;6.30;87.10
79439;DHT22;68889;48.232;10.110;2023-04-01T23:36:11;6.40;86.60
79439;DHT22;68889;48.232;10.110;2023-04-01T23:38:42;6.30;86.80
79439;DHT22;68889;48.232;10.110;2023-04-01T23:41:18;6.40;86.60
79439;DHT22;68889;48.232;10.110;2023-04-01T23:43:45;6.40;86.60
79439;DHT22;68889;48.232;10.110;2023-04-01T23:46:14;6.40;86.30
79439;DHT22;68889;48.232;10.110;2023-04-01T23:48:42;6.40;86.20
79439;DHT22;68889;48.232;10.110;2023-04-01T23:51:27;6.40;86.00
79439;DHT22;68889;48.232;10.110;2023-04-01T23:54:02;6.40;86.00
79439;DHT22;68889;48.232;10.110;2023-04-01T23:56:48;6.50;85.90
79439;DHT22;68889;48.232;10.110;2023-04-01T23:59:23;6.50;86.00
